Time;durP1;ratioP1;P1;durP2;ratioP2;P2;SDS_P1;SDS_P2;PMS_P1;PMS_P2;Temp;Humidity;BMP_temperature;BMP_pressure;BME280_temperature;BME280_humidity;BME280_pressure;Samples;Min_cycle;Max_cycle;Signal;HPM_P1;HPM_P2
2021/06/19 00:00:47;;;;;;;3.13;2.70;;;;;27.10;100206.00;;;;2071526;28;20648;-59
2021/06/19 00:01:48;;;;;;;2.53;2.30;;;;;27.10;100213.00;;;;2070853;28;20302;-59
2021/06/19 00:02:48;;;;;;;2.50;2.40;;;;;27.10;100211.00;;;;2071561;28;20427;-59
2021/06/19 00:03:48;;;;;;;2.30;2.10;;;;;27.10;100210.00;;;;2076943;28;20229;-60
2021/06/19 00:04:49;;;;;;;2.40;2.20;;;;;27.10;100212.00;;;;2076707;28;20646;-60
2021/06/19 00:05:49;;;;;;;3.00;2.40;;;;;27.10;100216.00;;;;2075110;28;20567;-58
2021/06/19 00:06:50;;;;;;;2.10;2.00;;;;;27.10;100217.00;;;;2075285;28;20217;-58
2021/06/19 00:07:50;;;;;;;2.90;2.70;;;;;27.10;100218.00;;;;2071355;28;20217;-59
2021/06/19 00:08:50;;;;;;;2.80;2.60;;;;;27.10;100216.00;;;;2071416;28;20220;-59
2021/06/19 00:09:51;;;;;;;2.70;2.50;;;;;27.10;100220.00;;;;2071243;28;20222;-58
2021/06/19 00:10:51;;;;;;;2.40;2.20;;;;;27.10;100222.00;;;;2071484;28;20638;-59
2021/06/19 00:11:52;;;;;;;2.30;2.10;;;;;27.10;100211.00;;;;2070874;28;20215;-58
2021/06/19 00:12:52;;;;;;;3.00;2.80;;;;;27.10;100224.00;;;;2071538;28;20226;-59
2021/06/19 00:13:52;;;;;;;2.57;2.37;;;;;27.10;100223.00;;;;2071552;28;20234;-60
2021/06/19 00:14:53;;;;;;;2.50;2.30;;;;;27.10;100225.00;;;;2071384;28;20245;-60
2021/06/19 00:15:53;;;;;;;2.60;2.43;;;;;27.10;100228.00;;;;2070845;28;20212;-58
2021/06/19 00:16:54;;;;;;;2.67;2.47;;;;;27.10;100238.00;;;;2070814;28;20301;-59
2021/06/19 00:17:54;;;;;;;2.50;2.30;;;;;27.10;100239.00;;;;2078878;28;20212;-60
2021/06/19 00:18:54;;;;;;;3.90;2.63;;;;;27.10;100238.00;;;;2078931;28;20224;-59
2021/06/19 00:19:55;;;;;;;2.57;2.33;;;;;27.10;100241.00;;;;2071440;28;20260;-59
2021/06/19 00:20:55;;;;;;;2.67;2.47;;;;;27.10;100231.00;;;;2071304;28;20244;-59
2021/06/19 00:21:55;;;;;;;3.00;2.70;;;;;27.10;100234.00;;;;2070750;28;20217;-60
2021/06/19 00:22:56;;;;;;;2.43;2.23;;;;;27.10;100239.00;;;;2068489;28;20206;-58
2021/06/19 00:23:56;;;;;;;2.40;2.20;;;;;27.10;100237.00;;;;2071488;28;20214;-59
2021/06/19 00:24:56;;;;;;;2.97;2.77;;;;;27.10;100237.00;;;;2070680;28;20410;-59
2021/06/19 00:25:57;;;;;;;2.50;2.30;;;;;27.10;100235.00;;;;2071240;28;20769;-60
2021/06/19 00:26:57;;;;;;;2.50;2.30;;;;;27.10;100235.00;;;;2071159;28;20218;-59
2021/06/19 00:27:58;;;;;;;2.70;2.50;;;;;27.10;100232.00;;;;2071566;28;20260;-59
2021/06/19 00:28:58;;;;;;;2.43;2.23;;;;;27.10;100234.00;;;;2071441;28;20703;-59
2021/06/19 00:29:58;;;;;;;2.70;2.50;;;;;27.10;100225.00;;;;2071176;28;20854;-59
2021/06/19 00:30:59;;;;;;;3.10;2.80;;;;;27.10;100229.00;;;;2070798;28;20218;-58
2021/06/19 00:31:59;;;;;;;2.90;2.70;;;;;27.10;100230.00;;;;2071408;28;20716;-59
2021/06/19 00:32:59;;;;;;;2.43;2.23;;;;;27.10;100231.00;;;;2075309;28;20292;-59
2021/06/19 00:34:00;;;;;;;2.57;2.43;;;;;27.10;100228.00;;;;2077479;28;20223;-58
2021/06/19 00:35:00;;;;;;;2.60;2.40;;;;;27.10;100224.00;;;;2074401;28;20257;-58
2021/06/19 00:36:01;;;;;;;2.80;2.60;;;;;27.10;100231.00;;;;2073483;28;20317;-60
2021/06/19 00:37:01;;;;;;;2.60;2.40;;;;;27.10;100234.00;;;;2072674;28;20249;-59
2021/06/19 00:38:01;;;;;;;2.23;2.13;;;;;27.10;100230.00;;;;2071360;28;20222;-59
2021/06/19 00:39:03;;;;;;;2.10;1.90;;;;;27.10;100237.00;;;;2071313;28;20210;-59
2021/06/19 00:40:05;;;;;;;3.00;2.80;;;;;27.10;100238.00;;;;2071376;28;20218;-60
2021/06/19 00:41:05;;;;;;;2.40;2.20;;;;;27.10;100234.00;;;;2070824;28;20468;-60
2021/06/19 00:42:06;;;;;;;2.47;2.27;;;;;27.10;100237.00;;;;2071123;28;20472;-59
2021/06/19 00:43:06;;;;;;;2.20;2.10;;;;;27.10;100242.00;;;;2073510;28;20276;-59
2021/06/19 00:44:18;;;;;;;2.77;2.57;;;;;27.10;100234.00;;;;2072887;28;20218;-59
2021/06/19 00:45:18;;;;;;;2.20;2.10;;;;;27.10;100237.00;;;;2067792;28;20217;-59
2021/06/19 00:46:18;;;;;;;2.50;2.30;;;;;27.10;100239.00;;;;2070092;28;20469;-59
2021/06/19 00:47:19;;;;;;;2.37;2.17;;;;;27.10;100239.00;;;;2068924;28;20222;-62
2021/06/19 00:48:21;;;;;;;2.67;2.47;;;;;27.10;100237.00;;;;2071289;28;20222;-60
2021/06/19 00:49:21;;;;;;;2.57;2.37;;;;;27.10;100234.00;;;;2071184;28;20956;-59
2021/06/19 00:50:22;;;;;;;2.50;2.30;;;;;27.10;100229.00;;;;2071287;28;20503;-58
2021/06/19 00:51:22;;;;;;;2.50;2.30;;;;;27.10;100235.00;;;;2070230;28;20244;-59
2021/06/19 00:52:23;;;;;;;2.63;2.43;;;;;27.10;100236.00;;;;2070982;28;20269;-58
2021/06/19 00:53:23;;;;;;;2.37;2.17;;;;;27.10;100238.00;;;;2071089;28;20228;-59
2021/06/19 00:54:23;;;;;;;2.87;2.40;;;;;27.10;100237.00;;;;2071178;28;20221;-59
2021/06/19 00:55:24;;;;;;;2.60;2.40;;;;;27.10;100238.00;;;;2070649;28;20210;-59
2021/06/19 00:56:24;;;;;;;2.70;2.50;;;;;27.10;100241.00;;;;2071090;28;20241;-60
2021/06/19 00:57:24;;;;;;;2.47;2.27;;;;;27.10;100238.00;;;;2070546;28;20272;-58
2021/06/19 00:58:25;;;;;;;2.77;2.57;;;;;27.10;100242.00;;;;2068659;28;20577;-58
2021/06/19 00:59:25;;;;;;;2.43;2.23;;;;;27.10;100238.00;;;;2069969;28;20241;-59
2021/06/19 01:00:26;;;;;;;2.60;2.40;;;;;27.10;100238.00;;;;2062016;28;20211;-60
2021/06/19 01:01:26;;;;;;;2.97;2.77;;;;;27.10;100226.00;;;;2068570;28;20695;-59
2021/06/19 01:02:26;;;;;;;2.63;2.43;;;;;27.10;100228.00;;;;2070692;28;20220;-59
2021/06/19 01:03:27;;;;;;;2.37;2.20;;;;;27.10;100229.00;;;;2070810;28;20280;-59
2021/06/19 01:04:27;;;;;;;2.70;2.50;;;;;27.10;100235.00;;;;2070419;28;20229;-60
2021/06/19 01:05:28;;;;;;;2.20;2.10;;;;;27.10;100230.00;;;;2069474;28;20373;-58
2021/06/19 01:06:30;;;;;;;2.40;2.17;;;;;27.10;100235.00;;;;2070098;28;20222;-58
2021/06/19 01:07:31;;;;;;;2.40;2.20;;;;;27.10;100228.00;;;;2070209;28;20443;-58
2021/06/19 01:08:31;;;;;;;2.20;2.07;;;;;27.10;100228.00;;;;2075322;28;20461;-59
2021/06/19 01:09:32;;;;;;;2.30;2.20;;;;;27.10;100235.00;;;;2078875;28;20333;-59
2021/06/19 01:10:32;;;;;;;2.53;2.40;;;;;27.10;100233.00;;;;2075937;28;20266;-59
2021/06/19 01:11:33;;;;;;;2.00;1.90;;;;;27.10;100228.00;;;;2071578;28;20939;-58
2021/06/19 01:12:33;;;;;;;2.17;2.07;;;;;27.10;100232.00;;;;2071087;28;20225;-58
2021/06/19 01:13:34;;;;;;;2.30;2.10;;;;;27.10;100231.00;;;;2070462;28;20774;-59
2021/06/19 01:14:35;;;;;;;2.37;2.17;;;;;27.10;100234.00;;;;2070836;28;20710;-59
2021/06/19 01:15:35;;;;;;;2.50;2.30;;;;;27.10;100232.00;;;;2071180;28;20544;-58
2021/06/19 01:16:35;;;;;;;2.37;2.20;;;;;27.10;100227.00;;;;2070879;28;20219;-59
2021/06/19 01:17:36;;;;;;;2.40;2.07;;;;;27.10;100230.00;;;;2071160;28;20313;-59
2021/06/19 01:18:36;;;;;;;2.33;2.13;;;;;27.10;100239.00;;;;2071311;28;20301;-60
2021/06/19 01:19:36;;;;;;;2.63;2.43;;;;;27.10;100223.00;;;;2070337;28;20745;-59
2021/06/19 01:20:37;;;;;;;2.10;2.00;;;;;27.10;100239.00;;;;2070968;28;20734;-59
2021/06/19 01:21:37;;;;;;;2.53;2.33;;;;;27.10;100220.00;;;;2071160;28;20571;-59
2021/06/19 01:22:38;;;;;;;2.60;2.40;;;;;27.10;100235.00;;;;2077171;28;20212;-58
2021/06/19 01:23:39;;;;;;;2.70;2.40;;;;;27.10;100234.00;;;;2073090;28;20570;-59
2021/06/19 01:24:39;;;;;;;2.40;2.20;;;;;27.10;100232.00;;;;2072459;28;20509;-59
2021/06/19 01:25:39;;;;;;;2.30;2.20;;;;;27.10;100235.00;;;;2070945;28;20244;-59
2021/06/19 01:26:40;;;;;;;2.57;2.47;;;;;27.10;100236.00;;;;2079236;28;20713;-59
2021/06/19 01:27:40;;;;;;;2.50;2.30;;;;;27.10;100242.00;;;;2079285;28;20701;-60
2021/06/19 01:28:42;;;;;;;2.73;2.53;;;;;27.10;100239.00;;;;2079251;28;20216;-60
2021/06/19 01:29:43;;;;;;;2.22;2.03;;;;;27.10;100235.00;;;;2079085;28;20243;-59
2021/06/19 01:30:43;;;;;;;2.50;2.30;;;;;27.10;100238.00;;;;2079122;28;20359;-59
2021/06/19 01:31:43;;;;;;;2.73;2.23;;;;;27.10;100235.00;;;;2077493;28;20300;-58
2021/06/19 01:32:44;;;;;;;2.33;2.23;;;;;27.10;100235.00;;;;2078533;28;20213;-59
2021/06/19 01:33:45;;;;;;;1.97;1.87;;;;;27.10;100235.00;;;;2078950;28;20248;-58
2021/06/19 01:34:45;;;;;;;2.10;2.00;;;;;27.10;100239.00;;;;2078388;28;22287;-60
2021/06/19 01:35:46;;;;;;;2.40;2.20;;;;;27.10;100231.00;;;;2078314;28;20467;-59
2021/06/19 01:36:46;;;;;;;2.10;1.90;;;;;27.10;100239.00;;;;2080241;28;20224;-59
2021/06/19 01:37:54;;;;;;;2.80;2.60;;;;;27.10;100238.00;;;;2080649;28;20214;-58
2021/06/19 01:38:55;;;;;;;2.63;2.20;;;;;27.10;100235.00;;;;2080851;28;20716;-59
2021/06/19 01:40:06;;;;;;;2.20;2.10;;;;;27.10;100233.00;;;;2076508;28;20461;-60
2021/06/19 01:41:16;;;;;;;2.10;2.00;;;;;27.10;100226.00;;;;2068580;28;20705;-59
2021/06/19 01:42:17;;;;;;;2.10;1.80;;;;;27.10;100222.00;;;;2076353;28;20456;-60
2021/06/19 01:43:17;;;;;;;2.23;2.10;;;;;27.10;100226.00;;;;2073742;28;20472;-60
2021/06/19 01:44:17;;;;;;;2.50;2.30;;;;;27.10;100227.00;;;;2072618;28;20221;-59
2021/06/19 01:45:20;;;;;;;2.93;2.73;;;;;27.10;100232.00;;;;2072537;28;20229;-60
2021/06/19 01:46:20;;;;;;;2.57;2.37;;;;;27.10;100231.00;;;;2072535;28;20813;-58
2021/06/19 01:47:20;;;;;;;2.60;2.40;;;;;27.10;100232.00;;;;2072748;28;20456;-58
2021/06/19 01:48:21;;;;;;;2.70;2.50;;;;;27.10;100225.00;;;;2072715;28;20663;-59
2021/06/19 01:49:21;;;;;;;2.80;2.60;;;;;27.10;100227.00;;;;2072502;28;20257;-59
2021/06/19 01:50:23;;;;;;;2.10;2.00;;;;;27.10;100230.00;;;;2071728;28;20218;-58
2021/06/19 01:51:23;;;;;;;2.87;2.67;;;;;27.10;100224.00;;;;2079323;28;20779;-60
2021/06/19 01:52:24;;;;;;;1.97;1.87;;;;;27.10;100223.00;;;;2080504;28;20452;-60
2021/06/19 01:53:24;;;;;;;2.20;2.00;;;;;27.10;100232.00;;;;2080612;28;20209;-60
2021/06/19 01:54:24;;;;;;;2.67;2.10;;;;;27.10;100224.00;;;;2080775;28;20217;-59
2021/06/19 01:55:25;;;;;;;2.40;2.03;;;;;27.10;100231.00;;;;2080606;28;20581;-60
2021/06/19 01:56:25;;;;;;;2.63;2.43;;;;;27.10;100225.00;;;;2080491;28;20221;-58
2021/06/19 01:57:25;;;;;;;2.00;1.90;;;;;27.10;100227.00;;;;2080734;28;20217;-59
2021/06/19 01:58:26;;;;;;;2.00;1.90;;;;;27.10;100225.00;;;;2080730;28;20205;-59
2021/06/19 01:59:26;;;;;;;2.30;2.20;;;;;27.10;100229.00;;;;2080613;28;20288;-59
2021/06/19 02:00:31;;;;;;;2.00;1.90;;;;;27.10;100238.00;;;;2080556;28;20340;-58
2021/06/19 02:01:31;;;;;;;2.00;1.90;;;;;27.10;100224.00;;;;2076006;28;20214;-59
2021/06/19 02:02:32;;;;;;;2.00;1.90;;;;;27.10;100229.00;;;;2072575;28;20587;-60
2021/06/19 02:03:32;;;;;;;2.40;2.20;;;;;27.10;100227.00;;;;2072241;28;20217;-59
2021/06/19 02:04:32;;;;;;;1.93;1.83;;;;;27.10;100222.00;;;;2072022;28;20311;-58
2021/06/19 02:05:33;;;;;;;2.67;2.20;;;;;27.10;100228.00;;;;2071270;28;20214;-58
2021/06/19 02:06:33;;;;;;;2.40;2.30;;;;;27.10;100231.00;;;;2071973;28;20592;-59
2021/06/19 02:07:42;;;;;;;2.10;2.00;;;;;27.10;100226.00;;;;2072011;28;20214;-58
2021/06/19 02:08:45;;;;;;;2.10;2.00;;;;;27.10;100233.00;;;;2071252;28;20309;-58
2021/06/19 02:09:45;;;;;;;2.17;2.07;;;;;27.10;100230.00;;;;2073708;28;20469;-60
2021/06/19 02:10:46;;;;;;;2.60;2.40;;;;;27.10;100227.00;;;;2076876;28;20974;-60
2021/06/19 02:11:46;;;;;;;2.03;1.90;;;;;27.10;100244.00;;;;2073823;28;20203;-59
2021/06/19 02:12:47;;;;;;;2.30;2.10;;;;;27.10;100236.00;;;;2074044;28;20207;-59
2021/06/19 02:13:47;;;;;;;2.20;2.00;;;;;27.10;100246.00;;;;2072576;28;20695;-59
2021/06/19 02:14:47;;;;;;;2.60;2.40;;;;;27.10;100238.00;;;;2072388;28;20218;-60
2021/06/19 02:15:48;;;;;;;2.33;2.23;;;;;27.10;100252.00;;;;2070528;28;20333;-58
2021/06/19 02:16:48;;;;;;;2.50;2.30;;;;;27.10;100243.00;;;;2078374;28;20240;-58
2021/06/19 02:17:48;;;;;;;2.27;2.00;;;;;27.10;100242.00;;;;2080541;28;20213;-60
2021/06/19 02:18:49;;;;;;;2.30;2.10;;;;;27.10;100250.00;;;;2080365;28;20217;-58
2021/06/19 02:19:49;;;;;;;2.07;1.97;;;;;27.10;100244.00;;;;2079985;28;20210;-58
2021/06/19 02:20:53;;;;;;;2.13;2.03;;;;;27.10;100244.00;;;;2079298;28;20209;-59
2021/06/19 02:21:53;;;;;;;1.90;1.80;;;;;27.10;100248.00;;;;2071950;28;20225;-58
2021/06/19 02:22:54;;;;;;;2.33;2.23;;;;;27.10;100245.00;;;;2075984;28;20439;-58
2021/06/19 02:23:54;;;;;;;2.37;2.20;;;;;27.10;100250.00;;;;2075024;28;20213;-60
2021/06/19 02:24:54;;;;;;;2.00;1.90;;;;;27.10;100250.00;;;;2072091;28;20397;-60
2021/06/19 02:25:55;;;;;;;2.30;2.10;;;;;27.10;100249.00;;;;2072212;28;20222;-59
2021/06/19 02:27:09;;;;;;;2.40;2.20;;;;;27.10;100254.00;;;;2072099;28;20300;-58
2021/06/19 02:28:10;;;;;;;2.20;2.07;;;;;27.10;100253.00;;;;2072128;28;20287;-59
2021/06/19 02:29:10;;;;;;;2.30;2.10;;;;;27.10;100248.00;;;;2072293;28;20952;-59
2021/06/19 02:30:11;;;;;;;2.30;2.10;;;;;27.10;100253.00;;;;2072374;28;20214;-60
2021/06/19 02:31:12;;;;;;;2.93;1.90;;;;;27.10;100246.00;;;;2071442;28;20226;-59
2021/06/19 02:32:12;;;;;;;1.77;1.67;;;;;27.10;100254.00;;;;2072250;28;20492;-58
2021/06/19 02:33:13;;;;;;;2.17;2.07;;;;;27.10;100259.00;;;;2071693;28;20293;-59
2021/06/19 02:34:13;;;;;;;2.30;2.10;;;;;27.10;100252.00;;;;2072139;28;20765;-59
2021/06/19 02:35:13;;;;;;;2.10;1.90;;;;;27.10;100258.00;;;;2071102;28;20306;-59
2021/06/19 02:36:15;;;;;;;2.07;1.97;;;;;27.10;100263.00;;;;2077168;28;20753;-59
2021/06/19 02:37:15;;;;;;;2.20;2.00;;;;;27.10;100262.00;;;;2075728;28;20211;-59
2021/06/19 02:38:16;;;;;;;2.43;2.23;;;;;27.10;100264.00;;;;2075320;28;20796;-59
2021/06/19 02:39:16;;;;;;;2.60;2.40;;;;;27.10;100261.00;;;;2072904;28;20214;-59
2021/06/19 02:40:17;;;;;;;1.87;1.77;;;;;27.10;100258.00;;;;2072110;28;20834;-58
2021/06/19 02:41:17;;;;;;;2.20;2.10;;;;;27.10;100263.00;;;;2074485;28;20212;-60
2021/06/19 02:42:17;;;;;;;1.70;1.60;;;;;27.10;100264.00;;;;2072411;28;20198;-58
2021/06/19 02:43:19;;;;;;;2.03;1.83;;;;;27.10;100259.00;;;;2074178;28;20579;-60
2021/06/19 02:44:19;;;;;;;2.20;2.10;;;;;27.10;100264.00;;;;2073521;28;20202;-59
2021/06/19 02:45:19;;;;;;;2.30;2.13;;;;;27.10;100254.00;;;;2072057;28;20432;-59
2021/06/19 02:46:20;;;;;;;2.33;2.20;;;;;27.10;100257.00;;;;2071933;28;20222;-59
2021/06/19 02:47:20;;;;;;;1.97;1.87;;;;;27.10;100265.00;;;;2072184;28;20289;-59
2021/06/19 02:48:20;;;;;;;2.37;2.00;;;;;27.10;100260.00;;;;2071537;28;20648;-59
2021/06/19 02:49:21;;;;;;;2.10;2.00;;;;;27.10;100259.00;;;;2072183;28;20224;-60
2021/06/19 02:50:23;;;;;;;1.97;1.87;;;;;27.10;100263.00;;;;2071944;28;20421;-60
2021/06/19 02:51:23;;;;;;;2.20;2.00;;;;;27.10;100268.00;;;;2070847;28;20221;-60
2021/06/19 02:52:24;;;;;;;2.20;2.00;;;;;27.10;100263.00;;;;2072510;28;20484;-59
2021/06/19 02:53:25;;;;;;;3.30;2.07;;;;;27.10;100262.00;;;;2080406;28;20279;-59
2021/06/19 02:54:25;;;;;;;2.10;1.90;;;;;27.00;100269.00;;;;2080176;28;20209;-59
2021/06/19 02:55:30;;;;;;;2.20;2.00;;;;;27.10;100267.00;;;;2077975;28;20543;-60
2021/06/19 02:56:31;;;;;;;1.70;1.60;;;;;27.10;100265.00;;;;2070486;28;20210;-59
2021/06/19 02:57:31;;;;;;;2.30;2.10;;;;;27.10;100268.00;;;;2079511;28;20490;-60
2021/06/19 02:58:31;;;;;;;1.90;1.80;;;;;27.10;100262.00;;;;2074886;28;20288;-60
2021/06/19 02:59:32;;;;;;;2.30;2.10;;;;;27.10;100264.00;;;;2071686;28;20225;-59
2021/06/19 03:00:32;;;;;;;1.80;1.70;;;;;27.10;100262.00;;;;2072082;28;20229;-58
2021/06/19 03:01:32;;;;;;;2.07;1.87;;;;;27.10;100268.00;;;;2071039;28;20691;-60
2021/06/19 03:02:33;;;;;;;2.13;2.00;;;;;27.10;100265.00;;;;2072024;28;20272;-58
2021/06/19 03:03:33;;;;;;;1.80;1.70;;;;;27.10;100270.00;;;;2071859;28;20218;-59
2021/06/19 03:04:33;;;;;;;1.60;1.50;;;;;27.10;100273.00;;;;2071695;28;20915;-59
2021/06/19 03:05:35;;;;;;;2.20;1.90;;;;;27.10;100269.00;;;;2071734;28;20245;-60
2021/06/19 03:06:35;;;;;;;1.90;1.80;;;;;27.10;100269.00;;;;2071750;28;20221;-59
2021/06/19 03:07:36;;;;;;;1.93;1.73;;;;;27.10;100278.00;;;;2071372;28;20536;-59
2021/06/19 03:08:36;;;;;;;2.10;1.90;;;;;27.10;100270.00;;;;2075698;28;20222;-60
2021/06/19 03:09:36;;;;;;;1.87;1.77;;;;;27.10;100264.00;;;;2071856;28;20294;-58
2021/06/19 03:10:38;;;;;;;1.87;1.77;;;;;27.10;100268.00;;;;2074876;28;20670;-59
2021/06/19 03:11:38;;;;;;;1.80;1.70;;;;;27.10;100266.00;;;;2070712;28;20210;-58
2021/06/19 03:12:39;;;;;;;1.70;1.60;;;;;27.10;100275.00;;;;2077751;28;20472;-58
2021/06/19 03:13:39;;;;;;;1.73;1.63;;;;;27.00;100273.00;;;;2079740;28;20630;-60
2021/06/19 03:14:40;;;;;;;1.90;1.80;;;;;27.00;100272.00;;;;2079736;28;20236;-59
2021/06/19 03:15:40;;;;;;;2.07;1.90;;;;;27.10;100270.00;;;;2079396;28;20236;-59
2021/06/19 03:16:41;;;;;;;2.73;2.00;;;;;27.10;100271.00;;;;2079297;28;20309;-58
2021/06/19 03:17:41;;;;;;;2.07;1.97;;;;;27.10;100273.00;;;;2079291;28;20225;-60
2021/06/19 03:18:41;;;;;;;1.93;1.70;;;;;27.00;100275.00;;;;2078070;28;20214;-61
2021/06/19 03:19:42;;;;;;;1.90;1.80;;;;;27.10;100272.00;;;;2078620;28;20772;-62
2021/06/19 03:20:42;;;;;;;2.10;1.90;;;;;27.10;100277.00;;;;2079601;28;20904;-61
2021/06/19 03:21:43;;;;;;;2.00;1.90;;;;;27.00;100275.00;;;;2079451;28;20213;-58
2021/06/19 03:22:56;;;;;;;2.13;1.80;;;;;27.00;100282.00;;;;2073419;28;20261;-58
2021/06/19 03:23:57;;;;;;;1.97;1.57;;;;;27.10;100276.00;;;;2071630;28;20556;-59
2021/06/19 03:24:57;;;;;;;1.80;1.70;;;;;27.10;100280.00;;;;2071111;28;20508;-58
2021/06/19 03:25:57;;;;;;;2.10;2.00;;;;;27.10;100282.00;;;;2067717;28;20222;-60
2021/06/19 03:26:58;;;;;;;2.07;1.97;;;;;27.10;100281.00;;;;2071692;28;20261;-60
2021/06/19 03:28:00;;;;;;;1.83;1.73;;;;;27.10;100289.00;;;;2071936;28;20557;-59
2021/06/19 03:29:00;;;;;;;2.10;2.00;;;;;27.10;100282.00;;;;2071885;28;20217;-60
2021/06/19 03:30:00;;;;;;;1.90;1.80;;;;;27.10;100278.00;;;;2071978;28;20833;-60
2021/06/19 03:31:01;;;;;;;1.80;1.70;;;;;27.10;100276.00;;;;2067450;28;20707;-59
2021/06/19 03:32:01;;;;;;;1.80;1.70;;;;;27.00;100273.00;;;;2071851;28;20597;-59
2021/06/19 03:33:02;;;;;;;2.03;1.90;;;;;27.10;100271.00;;;;2071893;28;20300;-59
2021/06/19 03:34:03;;;;;;;2.17;1.97;;;;;27.10;100271.00;;;;2073272;28;20578;-60
2021/06/19 03:35:04;;;;;;;2.00;1.90;;;;;27.00;100275.00;;;;2069902;28;20685;-58
2021/06/19 03:36:05;;;;;;;1.80;1.70;;;;;27.10;100279.00;;;;2072871;28;20309;-60
2021/06/19 03:37:05;;;;;;;1.90;1.80;;;;;27.10;100285.00;;;;2072127;28;20934;-60
2021/06/19 03:38:06;;;;;;;1.83;1.70;;;;;27.00;100273.00;;;;2071521;28;20917;-58
2021/06/19 03:39:07;;;;;;;1.90;1.80;;;;;27.10;100279.00;;;;2071801;28;20214;-60
2021/06/19 03:40:09;;;;;;;1.80;1.70;;;;;27.00;100265.00;;;;2073359;28;20449;-60
2021/06/19 03:41:09;;;;;;;1.90;1.80;;;;;27.00;100274.00;;;;2072996;28;20264;-59
2021/06/19 03:42:09;;;;;;;1.80;1.70;;;;;27.00;100275.00;;;;2073472;28;20856;-58
2021/06/19 03:43:10;;;;;;;2.10;1.90;;;;;27.00;100282.00;;;;2071971;28;20551;-59
2021/06/19 03:44:11;;;;;;;1.90;1.80;;;;;27.00;100277.00;;;;2071830;28;20240;-58
2021/06/19 03:45:11;;;;;;;1.80;1.70;;;;;27.10;100279.00;;;;2071502;28;20215;-60
2021/06/19 03:46:12;;;;;;;1.80;1.70;;;;;27.00;100276.00;;;;2071300;28;20469;-58
2021/06/19 03:47:12;;;;;;;2.37;2.20;;;;;27.10;100280.00;;;;2071672;28;20573;-59
2021/06/19 03:48:12;;;;;;;1.90;1.80;;;;;27.10;100283.00;;;;2071626;28;20222;-59
2021/06/19 03:49:13;;;;;;;1.93;1.77;;;;;27.10;100279.00;;;;2071529;28;20237;-58
2021/06/19 03:50:18;;;;;;;1.70;1.60;;;;;27.00;100282.00;;;;2071618;28;20737;-60
2021/06/19 03:51:18;;;;;;;2.13;1.90;;;;;27.10;100288.00;;;;2070603;28;20348;-59
2021/06/19 03:52:18;;;;;;;1.70;1.60;;;;;27.10;100287.00;;;;2071716;28;20460;-60
2021/06/19 03:53:19;;;;;;;1.87;1.77;;;;;27.10;100290.00;;;;2071689;28;20218;-60
2021/06/19 03:54:20;;;;;;;1.63;1.50;;;;;27.10;100295.00;;;;2071457;28;20214;-58
2021/06/19 03:55:20;;;;;;;1.80;1.70;;;;;27.00;100296.00;;;;2070967;28;20305;-58
2021/06/19 03:56:21;;;;;;;1.60;1.50;;;;;27.10;100296.00;;;;2070204;28;20465;-58
2021/06/19 03:57:31;;;;;;;1.80;1.70;;;;;27.10;100304.00;;;;2070956;28;21008;-59
2021/06/19 03:58:32;;;;;;;1.60;1.50;;;;;27.10;100309.00;;;;2071021;28;20452;-59
2021/06/19 03:59:33;;;;;;;1.77;1.67;;;;;27.10;100304.00;;;;2070559;28;20457;-59
2021/06/19 04:00:33;;;;;;;1.60;1.50;;;;;27.00;100312.00;;;;2070361;28;20262;-60
2021/06/19 04:01:33;;;;;;;1.93;1.83;;;;;27.10;100316.00;;;;2070722;28;20473;-59
2021/06/19 04:02:34;;;;;;;1.63;1.53;;;;;27.00;100313.00;;;;2071292;28;20233;-58
2021/06/19 04:03:34;;;;;;;1.63;1.53;;;;;27.10;100311.00;;;;2070449;28;20638;-58
2021/06/19 04:04:36;;;;;;;1.73;1.63;;;;;27.10;100315.00;;;;2074640;28;20209;-59
2021/06/19 04:05:37;;;;;;;1.80;1.70;;;;;27.10;100318.00;;;;2074700;28;20699;-59
2021/06/19 04:06:37;;;;;;;1.40;1.30;;;;;27.10;100323.00;;;;2073880;28;20465;-59
2021/06/19 04:07:38;;;;;;;1.83;1.73;;;;;27.10;100319.00;;;;2070872;28;20629;-60
2021/06/19 04:08:38;;;;;;;1.87;1.77;;;;;27.00;100323.00;;;;2071227;28;20218;-60
2021/06/19 04:09:38;;;;;;;2.30;1.70;;;;;27.10;100323.00;;;;2074039;28;20207;-59
2021/06/19 04:10:39;;;;;;;1.47;1.37;;;;;27.10;100323.00;;;;2072293;28;20230;-58
2021/06/19 04:11:39;;;;;;;1.83;1.73;;;;;27.00;100331.00;;;;2070539;28;20229;-58
2021/06/19 04:12:39;;;;;;;1.70;1.60;;;;;27.00;100333.00;;;;2071692;28;20673;-60
2021/06/19 04:13:41;;;;;;;1.80;1.70;;;;;27.00;100326.00;;;;2069614;28;20955;-60
2021/06/19 04:14:42;;;;;;;3.50;1.80;;;;;27.00;100331.00;;;;2069799;28;20318;-59
2021/06/19 04:15:42;;;;;;;1.87;1.77;;;;;27.00;100346.00;;;;2071550;28;20453;-59
2021/06/19 04:16:42;;;;;;;1.73;1.63;;;;;27.00;100323.00;;;;2071031;28;20234;-58
2021/06/19 04:17:43;;;;;;;1.83;1.67;;;;;27.00;100335.00;;;;2071520;28;20622;-58
2021/06/19 04:18:43;;;;;;;1.60;1.50;;;;;27.10;100331.00;;;;2071292;28;20228;-58
2021/06/19 04:19:44;;;;;;;2.53;1.50;;;;;27.10;100330.00;;;;2071156;28;20991;-59
2021/06/19 04:20:44;;;;;;;1.40;1.30;;;;;27.10;100343.00;;;;2071459;28;20226;-59
2021/06/19 04:21:44;;;;;;;2.40;1.60;;;;;27.10;100333.00;;;;2071116;28;20246;-58
2021/06/19 04:22:45;;;;;;;1.60;1.50;;;;;27.00;100337.00;;;;2071392;28;20650;-58
2021/06/19 04:23:45;;;;;;;2.30;1.60;;;;;27.10;100342.00;;;;2071426;28;20591;-60
2021/06/19 04:24:46;;;;;;;1.83;1.73;;;;;27.00;100337.00;;;;2071525;28;20560;-58
2021/06/19 04:25:46;;;;;;;1.63;1.53;;;;;27.10;100342.00;;;;2070018;28;20219;-59
2021/06/19 04:26:46;;;;;;;1.63;1.53;;;;;27.10;100339.00;;;;2070926;28;20642;-60
2021/06/19 04:27:52;;;;;;;1.70;1.60;;;;;27.10;100345.00;;;;2071104;28;20218;-58
2021/06/19 04:28:52;;;;;;;1.57;1.47;;;;;27.00;100346.00;;;;2070807;28;20599;-60
2021/06/19 04:29:53;;;;;;;1.60;1.50;;;;;27.00;100336.00;;;;2071357;28;20472;-60
2021/06/19 04:30:58;;;;;;;1.80;1.70;;;;;27.00;100333.00;;;;2070668;28;20220;-59
2021/06/19 04:31:59;;;;;;;1.93;1.50;;;;;27.10;100342.00;;;;2071410;28;20525;-58
2021/06/19 04:33:00;;;;;;;1.50;1.40;;;;;27.10;100334.00;;;;2071207;28;20461;-60
2021/06/19 04:34:00;;;;;;;1.73;1.63;;;;;27.10;100339.00;;;;2071143;28;20226;-60
2021/06/19 04:35:00;;;;;;;1.60;1.50;;;;;27.00;100339.00;;;;2071277;28;20222;-59
2021/06/19 04:36:02;;;;;;;1.67;1.40;;;;;27.00;100342.00;;;;2071089;28;20226;-59
2021/06/19 04:37:02;;;;;;;1.77;1.67;;;;;27.10;100347.00;;;;2071302;28;20582;-58
2021/06/19 04:38:03;;;;;;;1.67;1.57;;;;;27.10;100349.00;;;;2071276;28;20564;-59
2021/06/19 04:39:03;;;;;;;1.60;1.50;;;;;27.10;100347.00;;;;2071198;28;20210;-58
2021/06/19 04:40:10;;;;;;;1.73;1.63;;;;;27.10;100340.00;;;;2067545;28;20214;-59
2021/06/19 04:41:22;;;;;;;1.57;1.47;;;;;27.10;100346.00;;;;2073564;28;20217;-59
2021/06/19 04:42:25;;;;;;;1.40;1.30;;;;;27.10;100335.00;;;;2071364;28;20500;-59
2021/06/19 04:43:32;;;;;;;1.90;1.70;;;;;27.10;100326.00;;;;2070676;28;20453;-60
2021/06/19 04:45:42;;;;;;;1.73;1.60;;;;;27.10;100342.00;;;;2071620;28;20572;-60
2021/06/19 04:46:43;;;;;;;1.67;1.57;;;;;27.10;100332.00;;;;2074599;28;20464;-59
2021/06/19 04:47:44;;;;;;;1.40;1.30;;;;;27.10;100344.00;;;;2071231;28;20592;-58
2021/06/19 04:48:44;;;;;;;1.60;1.50;;;;;27.10;100337.00;;;;2071334;28;20222;-59
2021/06/19 04:49:44;;;;;;;1.47;1.37;;;;;27.10;100343.00;;;;2071237;28;20217;-59
2021/06/19 04:50:45;;;;;;;1.57;1.47;;;;;27.10;100334.00;;;;2071088;28;20222;-60
2021/06/19 04:51:45;;;;;;;1.60;1.50;;;;;27.10;100337.00;;;;2070840;28;20297;-59
2021/06/19 04:52:45;;;;;;;1.67;1.53;;;;;27.10;100331.00;;;;2071274;28;22457;-58
2021/06/19 04:53:46;;;;;;;1.50;1.40;;;;;27.10;100335.00;;;;2071030;28;20226;-59
2021/06/19 04:54:46;;;;;;;1.60;1.50;;;;;27.10;100337.00;;;;2070561;28;20588;-60
2021/06/19 04:55:47;;;;;;;1.40;1.30;;;;;27.10;100341.00;;;;2070428;28;20283;-60
2021/06/19 04:56:47;;;;;;;1.33;1.23;;;;;27.10;100348.00;;;;2072052;28;20233;-59
2021/06/19 04:57:49;;;;;;;1.60;1.50;;;;;27.10;100353.00;;;;2072494;28;20214;-58
2021/06/19 04:58:50;;;;;;;1.60;1.50;;;;;27.10;100351.00;;;;2071985;28;20225;-58
2021/06/19 04:59:50;;;;;;;1.63;1.53;;;;;27.10;100359.00;;;;2071079;28;20520;-59
2021/06/19 05:00:50;;;;;;;1.63;1.53;;;;;27.10;100353.00;;;;2071167;28;20214;-59
2021/06/19 05:01:51;;;;;;;1.60;1.50;;;;;27.10;100351.00;;;;2070823;28;20210;-60
2021/06/19 05:02:51;;;;;;;1.30;1.20;;;;;27.10;100365.00;;;;2070821;28;20218;-59